Latest Weather Observations for Bombala AWS

IDN60801

Issued at 8:03 am EST Sunday 29 May 2016 (issued every 30 minutes, with the page automatically refreshed every 10 minutes)

About weather observations | Map of weather stations | Latest weather observations for NSW | Other Formats
Station Details ID: 070328 Name: BOMBALA AWS Lat: -37.00 Lon: 149.23 Height: 760.5 m
Data from the previous 72 hours. | See also: Recent months at Bombala AWS
Date/Time
EST
Temp
°C
App
Temp
°C
Dew
Point
Rel
Hum
%
Delta-T
°C
Wind Press
QNH
hPa
Press
MSL
hPa
Rain
since 9 am
mm
Dir
 
Spd
km/h
Gust
km/h
Spd
kts
Gust
kts
29/08:00am 5.6 0.7 4.1 90 0.7 WSW 19 24 10 13 1014.9 1015.1 0.2
29/07:30am 5.5 -0.4 3.7 88 0.8 W 24 33 13 18 1014.5 1014.6 0.2
29/07:00am 5.6 -0.7 3.6 87 0.9 W 26 30 14 16 1014.3 1014.4 0.2
29/06:30am 5.8 -0.2 3.6 86 1.0 WSW 24 37 13 20 1014.1 1014.2 0.2
29/06:00am 5.9 -0.8 3.6 85 1.0 W 28 43 15 23 1013.6 1013.8 0.2
29/05:30am 5.8 0.2 3.6 86 1.0 W 22 30 12 16 1013.6 1013.8 0.2
29/05:00am 5.7 0.6 3.9 88 0.8 W 20 32 11 17 1013.4 1013.5 0.2
29/04:30am 5.6 1.0 3.9 89 0.8 W 17 24 9 13 1013.2 1013.3 0.2
29/04:00am 5.6 0.5 3.9 89 0.8 WSW 20 32 11 17 1013.0 1013.1 0.2
29/03:30am 5.5 0.7 4.8 95 0.3 W 19 24 10 13 1012.9 1013.0 0.2
29/03:00am 5.1 0.7 5.0 99 0.0 W 17 24 9 13 1012.6 1012.7 0.2
29/02:30am 4.6 0.2 4.5 99 0.0 W 17 22 9 12 1012.4 1012.6 0.2
29/02:00am 4.9 2.0 4.8 99 0.0 NW 9 15 5 8 1012.8 1012.9 0.2
29/01:30am 5.2 2.0 5.1 99 0.0 W 11 20 6 11 1012.7 1012.8 0.2
29/01:00am 5.5 0.1 4.6 94 0.4 W 22 33 12 18 1012.1 1012.2 0.2
29/12:30am 5.8 -0.8 4.4 91 0.6 WSW 28 39 15 21 1012.0 1012.1 0.2
29/12:00am 5.6 1.0 3.8 88 0.8 W 17 26 9 14 1012.1 1012.2 0.2
 
Date/Time
EST
Temp
°C
App
Temp
°C
Dew
Point
Rel
Hum
%
Delta-T
°C
Wind Press
QNH
hPa
Press
MSL
hPa
Rain
since 9 am
mm
Dir
 
Spd
km/h
Gust
km/h
Spd
kts
Gust
kts
28/11:30pm 5.5 0.5 3.7 88 0.8 WSW 19 28 10 15 1012.1 1012.2 0.2
28/11:00pm 5.1 -0.9 3.1 87 0.9 W 24 33 13 18 1012.0 1012.1 0.2
28/10:30pm 5.6 2.2 3.8 88 0.8 W 11 19 6 10 1012.1 1012.2 0.2
28/10:00pm 5.5 0.6 4.0 90 0.7 WSW 19 26 10 14 1012.0 1012.1 0.2
28/09:30pm 5.3 0.1 3.8 90 0.7 WSW 20 33 11 18 1011.8 1011.9 0.2
28/09:00pm 4.7 -1.3 3.5 92 0.5 WSW 24 37 13 20 1011.7 1011.8 0.2
28/08:30pm 4.7 2.3 4.4 98 0.1 WSW 6 9 3 5 1011.6 1011.7 0.2
28/08:00pm 4.8 0.4 4.7 99 0.0 WSW 17 26 9 14 1011.4 1011.5 0.2
28/07:30pm 5.1 1.1 5.1 100 0.0 WSW 15 24 8 13 1011.2 1011.2 0.2
28/07:00pm 6.0 1.7 5.4 96 0.3 WSW 17 24 9 13 1010.8 1010.9 0.2
28/06:30pm 5.7 1.2 4.3 91 0.6 WSW 17 26 9 14 1010.4 1010.5 0.2
28/06:00pm 5.5 1.3 3.8 89 0.8 W 15 24 8 13 1010.1 1010.2 0.2
28/05:30pm 5.6 2.5 3.8 88 0.8 WSW 9 15 5 8 1009.6 1009.7 0.2
28/05:00pm 6.1 1.0 3.9 86 1.0 SW 20 30 11 16 1009.0 1009.1 0.2
28/04:30pm 6.7 0.2 4.5 86 1.0 SW 28 41 15 22 1008.7 1008.7 0.2
28/04:00pm 6.8 0.4 5.0 88 0.8 WSW 28 37 15 20 1008.1 1008.2 0.2
28/03:30pm 6.8 0.7 4.6 86 1.0 WSW 26 37 14 20 1007.7 1007.7 0.2
28/03:00pm 7.2 -0.3 4.3 82 1.3 WSW 33 46 18 25 1007.3 1007.3 0.2
28/02:30pm 7.6 -0.4 4.0 78 1.6 WSW 35 46 19 25 1006.7 1006.8 0.2
28/02:00pm 6.9 -0.5 4.0 82 1.3 WSW 32 41 17 22 1006.3 1006.3 0.2
28/01:30pm 6.8 0.2 4.3 84 1.1 WSW 28 43 15 23 1006.3 1006.3 0.2
28/01:00pm 6.3 0.1 4.3 87 0.9 WSW 26 35 14 19 1006.2 1006.2 0.2
28/12:30pm 6.1 0.8 5.1 93 0.5 WSW 22 32 12 17 1006.3 1006.3 0.2
28/12:00pm 6.1 1.5 5.4 95 0.3 W 19 26 10 14 1006.4 1006.4 0.2
28/11:30am 5.7 0.9 5.6 99 0.0 W 20 26 11 14 1006.6 1006.6 0.2
28/11:00am 3.5 -0.4 3.5 100 0.0 NNW 13 17 7 9 1007.0 1007.0 0.2
28/10:30am 3.0 -0.2 3.0 100 0.0 NNW 9 11 5 6 1007.3 1007.3 0.2
28/10:00am 2.3 -1.8 2.3 100 0.0 NNW 13 13 7 7 1007.4 1007.4 0.2
28/09:30am 1.8 -2.4 1.8 100 0.0 NNW 13 15 7 8 1007.3 1007.3 0.2
28/09:00am 1.5 -2.7 1.5 100 0.0 NNW 13 15 7 8 1007.3 1007.3 0.2
28/08:30am 1.4 -3.2 1.4 100 0.0 NNW 15 17 8 9 1007.2 1007.2 0.2
28/08:00am 1.2 -3.1 1.2 100 0.0 NNW 13 17 7 9 1007.2 1007.2 0.2
28/07:30am 1.0 -2.9 1.0 100 0.0 NNW 11 13 6 7 1006.8 1006.9 0.2
28/07:00am 0.9 -2.1 0.9 100 0.0 N 6 7 3 4 1006.8 1006.9 0.2
28/06:30am 0.7 -3.6 0.7 100 0.0 NNW 13 15 7 8 1006.7 1006.8 0.0
28/06:00am 0.5 -2.7 0.5 100 0.0 N 7 11 4 6 1006.4 1006.4 0.0
28/05:30am 0.3 -3.3 0.3 100 0.0 NNW 9 11 5 6 1006.1 1006.1 0.0
28/05:00am 0.4 -2.9 0.4 100 0.0 N 7 9 4 5 1006.2 1006.2 0.0
28/04:30am 0.9 -2.7 0.9 100 0.0 NNW 9 9 5 5 1006.2 1006.2 0.0
28/04:00am 1.1 -2.4 1.1 100 0.0 NNW 9 13 5 7 1006.2 1006.2 0.0
28/03:30am 2.1 -1.7 2.0 99 0.0 NW 11 17 6 9 1005.9 1005.9 0.0
28/03:00am 2.6 -1.1 2.5 99 0.0 NW 11 15 6 8 1006.0 1006.0 0.0
28/02:30am 2.4 -1.3 2.4 100 0.0 WNW 11 15 6 8 1006.4 1006.4 0.0
28/02:00am 2.7 -1.3 2.7 100 0.0 WNW 13 17 7 9 1006.4 1006.4 0.0
28/01:30am 2.9 -1.1 2.8 99 0.0 WNW 13 15 7 8 1006.5 1006.5 0.0
28/01:00am 3.1 -1.2 3.0 99 0.0 NW 15 17 8 9 1006.6 1006.6 0.0
28/12:30am 3.4 -0.9 3.3 99 0.0 WNW 15 19 8 10 1006.6 1006.6 0.0
28/12:00am 4.1 -0.1 4.0 99 0.0 NW 15 20 8 11 1006.5 1006.5 0.0
 
Date/Time
EST
Temp
°C
App
Temp
°C
Dew
Point
Rel
Hum
%
Delta-T
°C
Wind Press
QNH
hPa
Press
MSL
hPa
Rain
since 9 am
mm
Dir
 
Spd
km/h
Gust
km/h
Spd
kts
Gust
kts
27/11:30pm 4.7 0.1 3.8 94 0.4 WNW 17 22 9 12 1006.6 1006.6 0.0
27/11:00pm 5.1 0.6 4.2 94 0.4 W 17 30 9 16 1006.5 1006.5 0.0
27/10:30pm 5.1 -1.1 4.4 95 0.3 W 26 35 14 19 1006.1 1006.1 0.0
27/10:00pm 5.1 -0.7 4.5 96 0.3 W 24 32 13 17 1006.1 1006.1 0.0
27/09:30pm 5.0 0.5 4.1 94 0.4 W 17 24 9 13 1006.2 1006.2 0.0
27/09:00pm 5.0 0.4 3.8 92 0.5 WSW 17 28 9 15 1006.1 1006.1 0.0
27/08:30pm 5.4 -0.5 3.9 90 0.7 WSW 24 33 13 18 1005.7 1005.7 0.0
27/08:00pm 5.7 -0.2 3.9 88 0.8 WSW 24 37 13 20 1005.9 1005.9 0.0
27/07:30pm 6.0 0.2 4.2 88 0.8 WSW 24 35 13 19 1005.8 1005.8 0.0
27/07:00pm 5.8 0.2 3.6 86 1.0 WSW 22 32 12 17 1005.4 1005.4 0.0
27/06:30pm 6.0 -2.0 3.8 86 1.0 WSW 35 50 19 27 1004.7 1004.7 0.0
27/06:00pm 6.2 -2.1 4.4 88 0.8 WSW 37 50 20 27 1004.2 1004.1 0.0
27/05:30pm 6.4 -2.0 3.9 84 1.1 WSW 37 56 20 30 1003.7 1003.7 0.0
27/05:00pm 6.4 -1.5 4.4 87 0.9 WSW 35 54 19 29 1003.4 1003.4 0.0
27/04:30pm 6.4 -1.1 4.2 86 1.0 WSW 33 46 18 25 1003.2 1003.1 0.0
27/04:09pm 6.5 -3.1 3.5 81 1.3 WSW 43 61 23 33 1002.8 1002.7 0.0
27/04:00pm 6.5 -3.0 3.7 82 1.3 WSW 43 59 23 32 1002.4 1002.4 0.0
27/03:39pm 6.6 -2.2 3.4 80 1.4 WSW 39 61 21 33 1002.1 1002.0 0.0
27/03:30pm 6.5 -1.9 3.5 81 1.3 WSW 37 52 20 28 1002.0 1001.9 0.0
27/03:00pm 6.5 -3.2 3.7 82 1.3 WSW 44 63 24 34 1001.6 1001.5 0.0
27/02:34pm 6.7 -3.9 3.1 78 1.6 WSW 48 67 26 36 1000.8 1000.7 0.0
27/02:30pm 6.7 -3.9 3.1 78 1.6 WSW 48 63 26 34 1001.0 1000.9 0.0
27/02:00pm 6.9 -3.7 3.3 78 1.6 WSW 48 70 26 38 1000.4 1000.3 0.0
27/01:44pm 7.0 -3.5 3.6 79 1.5 WSW 48 69 26 37 1000.7 1000.6 0.0
27/01:30pm 6.9 -2.8 4.0 82 1.3 WSW 44 61 24 33 1000.7 1000.6 0.0
27/01:13pm 6.9 -2.7 4.2 83 1.2 WSW 44 63 24 34 1000.6 1000.5 0.0
27/01:00pm 6.6 -2.9 3.8 82 1.3 WSW 43 59 23 32 1000.4 1000.3 0.0
27/12:30pm 6.4 -3.3 3.7 83 1.2 WSW 44 63 24 34 1000.7 1000.6 0.0
27/12:11pm 6.5 -3.1 4.2 85 1.0 WSW 44 67 24 36 1000.7 1000.6 0.0
27/12:00pm 6.1 -3.9 4.4 89 0.8 WSW 46 61 25 33 1000.5 1000.4 0.0
27/11:30am 5.8 -4.0 5.1 95 0.3 WSW 46 69 25 37 1000.5 1000.4 0.0
27/11:00am 6.0 -3.4 4.2 88 0.8 WSW 43 65 23 35 1000.8 1000.7 0.0
27/10:55am 6.1 -2.4 5.1 93 0.5 WSW 39 57 21 31 1000.9 1000.8 0.0
27/10:30am 5.5 -3.3 5.4 99 0.0 WSW 41 56 22 30 1001.1 1001.1 0.0
27/10:22am 5.6 -2.4 5.5 99 0.0 WSW 37 56 20 30 1001.0 1000.9 0.0
27/10:00am 5.8 -1.6 5.1 95 0.3 W 33 44 18 24 1001.1 1001.1 0.0
27/09:30am 5.4 -2.8 5.0 97 0.2 W 37 57 20 31 1000.8 1000.7 0.0
27/09:03am 5.3 -3.7 4.3 93 0.4 W 41 61 22 33 1000.9 1000.8 0.0
27/09:00am 5.3 -4.2 3.8 90 0.7 W 43 61 23 33 1000.8 1000.7 7.8
27/08:31am 5.4 -4.2 3.4 87 0.9 WSW 43 61 23 33 1000.6 1000.5 7.8
27/08:30am 5.4 -4.4 3.3 86 0.9 WSW 44 61 24 33 1000.5 1000.4 7.8
27/08:28am 5.4 -3.8 3.3 86 0.9 WSW 41 61 22 33 1000.4 1000.3 7.8
27/08:00am 4.9 -4.3 3.6 91 0.6 WSW 41 57 22 31 1000.4 1000.3 7.8
27/07:32am 4.8 -4.4 3.3 90 0.7 W 41 63 22 34 1000.3 1000.2 7.8
27/07:30am 4.8 -4.4 3.5 91 0.6 W 41 57 22 31 1000.4 1000.3 7.8
27/07:16am 5.1 -4.6 3.0 86 0.9 W 43 63 23 34 1000.4 1000.3 7.8
27/07:00am 5.1 -3.7 3.6 90 0.7 W 39 52 21 28 1000.5 1000.4 7.8
27/06:31am 4.8 -2.5 4.4 97 0.2 W 32 56 17 30 1000.4 1000.3 7.8
27/06:30am 4.7 -2.6 4.4 98 0.1 W 32 43 17 23 1000.4 1000.3 7.8
27/06:00am 5.0 -3.0 4.0 93 0.4 WSW 35 50 19 27 1000.3 1000.2 7.8
27/05:36am 5.3 -3.8 3.8 90 0.7 WSW 41 65 22 35 1000.1 1000.0 7.8
27/05:30am 5.1 -3.2 4.1 93 0.4 WSW 37 54 20 29 1000.1 1000.0 7.8
27/05:00am 5.2 -3.8 4.3 94 0.4 WSW 41 56 22 30 1000.0 999.9 7.8
27/04:42am 4.5 -3.0 4.4 99 0.0 WSW 33 54 18 29 1000.1 1000.0 7.8
27/04:30am 4.8 -3.8 4.8 100 0.0 WSW 39 57 21 31 1000.1 1000.0 7.6
27/04:00am 5.4 -3.5 5.0 97 0.2 WSW 41 54 22 29 999.7 999.6 7.6
27/03:36am 5.3 -3.2 5.2 99 0.0 W 39 59 21 32 999.4 999.3 7.6
27/03:30am 5.2 -2.6 5.1 99 0.0 W 35 46 19 25 999.5 999.4 7.6
27/03:00am 5.4 -3.1 5.3 99 0.0 WSW 39 52 21 28 999.7 999.6 7.6
27/02:49am 5.5 -2.2 5.4 99 0.0 WSW 35 56 19 30 999.8 999.7 7.6
27/02:30am 5.6 -1.5 5.5 99 0.0 WSW 32 46 17 25 1000.2 1000.1 7.6
27/02:05am 6.0 -1.2 5.1 94 0.4 WSW 32 50 17 27 1000.2 1000.1 7.6
27/02:00am 5.9 -1.2 5.5 97 0.2 WSW 32 46 17 25 1000.2 1000.1 7.6
27/01:30am 6.0 -2.1 5.3 95 0.3 WSW 37 52 20 28 1000.0 999.9 7.6
27/01:02am 6.2 -2.0 4.5 89 0.8 W 37 57 20 31 999.8 999.7 7.6
27/01:00am 5.9 -2.3 4.5 91 0.6 W 37 50 20 27 1000.0 999.9 7.6
27/12:59am 6.0 -2.2 4.6 91 0.6 W 37 57 20 31 1000.0 999.9 7.6
27/12:30am 6.0 -3.5 4.8 92 0.5 WSW 44 56 24 30 999.8 999.7 7.6
27/12:08am 5.9 -2.3 4.9 93 0.5 WSW 37 57 20 31 1000.1 1000.0 7.6
27/12:00am 5.8 -2.0 4.9 94 0.4 WSW 35 50 19 27 1000.2 1000.1 7.6
 
Date/Time
EST
Temp
°C
App
Temp
°C
Dew
Point
Rel
Hum
%
Delta-T
°C
Wind Press
QNH
hPa
Press
MSL
hPa
Rain
since 9 am
mm
Dir
 
Spd
km/h
Gust
km/h
Spd
kts
Gust
kts
26/11:48pm 5.8 -1.4 4.8 93 0.5 WSW 32 50 17 27 1000.4 1000.3 7.6
26/11:30pm 5.7 -1.2 4.8 94 0.4 WSW 30 39 16 21 1000.6 1000.5 7.6
26/11:00pm 5.7 -3.3 4.5 92 0.5 W 41 54 22 29 1000.5 1000.4 7.6
26/10:30pm 5.5 -2.9 5.4 99 0.0 WSW 39 57 21 31 1000.6 1000.5 7.6
26/10:23pm 5.6 -2.8 5.5 99 0.0 WSW 39 57 21 31 1000.6 1000.5 7.6
26/10:00pm 5.5 -2.6 5.4 99 0.0 WSW 37 56 20 30 1000.8 1000.7 7.6
26/09:42pm 5.8 -0.5 5.7 99 0.0 WSW 28 46 15 25 1001.0 1000.9 7.6
26/09:30pm 5.9 0.4 5.8 99 0.0 WSW 24 32 13 17 1001.4 1001.3 7.6
26/09:12pm 5.8 -1.4 5.7 99 0.0 WSW 33 54 18 29 1001.0 1000.9 7.6
26/09:00pm 5.9 -2.1 5.8 99 0.0 WSW 37 48 20 26 1000.7 1000.6 7.6
26/08:30pm 6.2 -0.8 6.2 100 0.0 WSW 32 43 17 23 1000.6 1000.5 7.6
26/08:00pm 6.9 1.6 6.9 100 0.0 W 24 32 13 17 1000.6 1000.5 7.6
26/07:30pm 7.0 2.1 7.0 100 0.0 WSW 22 32 12 17 1000.5 1000.4 7.6
26/07:00pm 7.0 4.6 7.0 100 0.0 W 9 13 5 7 1000.3 1000.2 7.4
26/06:30pm 6.7 3.8 6.7 100 0.0 WNW 11 15 6 8 1000.0 999.9 7.4
26/06:00pm 6.7 4.6 6.7 100 0.0 W 7 9 4 5 999.7 999.6 7.4
26/05:30pm 6.8 4.4 6.8 100 0.0 W 9 15 5 8 999.6 999.5 7.4
26/05:00pm 6.9 4.1 6.9 100 0.0 WSW 11 15 6 8 999.4 999.3 7.4
26/04:30pm 7.3 5.0 7.3 100 0.0 WSW 9 13 5 7 999.4 999.3 7.4
26/04:00pm 7.6 2.9 7.6 100 0.0 WSW 22 35 12 19 999.4 999.3 7.2
26/03:30pm 8.1 4.4 8.1 100 0.0 WSW 17 22 9 12 999.5 999.4 6.8
26/03:00pm 8.4 5.2 8.4 100 0.0 WSW 15 20 8 11 999.3 999.2 6.6
26/02:30pm 8.3 5.1 8.3 100 0.0 WSW 15 19 8 10 999.1 999.0 6.6
26/02:00pm 8.3 4.1 8.3 100 0.0 WSW 20 26 11 14 999.3 999.2 6.2
26/01:30pm 8.4 5.2 8.4 100 0.0 SW 15 22 8 12 999.7 999.6 5.8
26/01:00pm 8.1 6.5 8.1 100 0.0 SW 6 9 3 5 1000.2 1000.1 5.2
26/12:30pm 8.1 6.3 8.1 100 0.0 WSW 7 9 4 5 1000.7 1000.6 5.2
26/12:00pm 8.0 6.4 8.0 100 0.0 NW 6 6 3 3 1000.9 1000.8 4.8
26/11:30am 7.7 6.4 7.7 100 0.0 NW 4 6 2 3 1001.4 1001.3 4.2
26/11:00am 7.5 6.9 7.5 100 0.0 CALM 0 0 0 0 1002.0 1001.9 3.8
26/10:30am 7.0 5.5 7.0 100 0.0 NW 4 4 2 2 1002.8 1002.7 3.0
26/10:00am 6.9 5.4 6.9 100 0.0 NW 4 6 2 3 1003.2 1003.1 2.0
26/09:30am 6.8 5.3 6.8 100 0.0 NW 4 6 2 3 1003.5 1003.5 0.8
26/09:00am 6.4 4.2 6.4 100 0.0 NNW 7 7 4 4 1003.9 1003.9 5.6
26/08:30am 6.0 3.8 6.0 100 0.0 NNW 7 9 4 5 1004.4 1004.3 4.8

Other Formats:

Comma delimited format used in spreadsheet applications
http://www.bom.gov.au/fwo/IDN60801/IDN60801.94929.axf

JavaScript Object Notation format (JSON) in row-major order
http://www.bom.gov.au/fwo/IDN60801/IDN60801.94929.json